Toliver, North Carolina
Current Conditions -  °F | °C
As of 4:35 AM on Wednesday 22 Oct 2014 (Local Time) from KTNB Reporting Station
Broken Clouds Broken Clouds  
Wind Chill: 35°   Ceiling: 2300
Heat Index: 42°   Visibility: 10mi
Dew Point: 33°   Wind: 13mph
Humidity: 72%   Direction: 300°WNW
Pressure: 30.01"   Gusts: 24mph
Location:  36.3248°N, 81.6045°W
Report Text: KTNB 220835Z AUTO 30011G21KT 10SM BKN023 06/01 A3001 RMK AO2 T00550008
Loading
Personal Weather Stations






























Interactive Weather Map
Tropical Storm Tracking
New forecast layout! Learn more

10-Day Weather Forecast

Advertisements
Track Severe Weather on mobile